Route Details

Aircraft Information
Group: North America Fleet
Types: B738, B752, B762, B763
Route Data
Distance: 711nm
Duration: 2h 29m
Origin METAR: KDEN 152353Z 36007KT 10SM -RA SCT023 BKN100 OVC200 19/16 A3020 RMK AO2 LTG DSNT E AND SE TSE01 SLP160 P0003 60003 T01890161 10300 20183 50014
Dest. METAR: KONT 152353Z 25011G18KT 10SM FEW120 FEW180 36/13 A2978 RMK AO2 SLP062 CB DSNT E AND SE T03560133 10367 20311 56016
Freight Data
(for Aug 16, 2022)
Load Factor:
73%
Manifested Cargo: 74,089lbs
Financial History
Total Freight: 50,668lbs
Average Load: 0lbs/flt
Fuel Used: 66,901lbs
Avg. Fuel Used: 0lbs/flt
Fuel Expense: $30,774
Avg. Fuel Expense: $0
Avg. Fuel Cost: $0/lbs
Total Gross Income: $132,750
Pilot Pay: $169
Total Expenses: $26,971
Total Revenue: $74,487
Average Revenue: $0

Capitol Logistics 311




KDEN
Denver International Airport
Denver, Colorado
KONT
Ontario International Airport
Ontario, California

Activity Log

Date Flight Route Aircraft Duration
07/17/2022 CPX311 BAYLR6 TEHRU TOADD Q78 MARUE JCKIE2 B763 1h 53m